createdAt,value
2022-07-30T00:02:13.315Z,5.55
2022-07-30T00:04:41.341Z,7.50
2022-07-30T00:07:09.624Z,8.48
2022-07-30T00:09:37.493Z,6.38
2022-07-30T00:12:08.271Z,8.32
2022-07-30T00:14:37.018Z,8.52
2022-07-30T00:17:06.301Z,5.03
2022-07-30T00:19:35.538Z,6.10
2022-07-30T00:22:04.031Z,3.58
2022-07-30T00:24:31.991Z,4.68
2022-07-30T00:27:00.194Z,5.07
2022-07-30T00:29:30.846Z,3.92
2022-07-30T00:31:58.801Z,4.93
2022-07-30T00:34:26.848Z,3.47
2022-07-30T00:36:54.859Z,7.93
2022-07-30T00:39:22.849Z,4.22
2022-07-30T00:42:03.101Z,6.50
2022-07-30T00:44:32.537Z,7.50
2022-07-30T00:47:00.890Z,3.65
2022-07-30T00:49:29.128Z,3.30
2022-07-30T00:51:57.357Z,4.97
2022-07-30T00:54:25.406Z,6.93
2022-07-30T00:56:53.598Z,6.63
2022-07-30T00:59:22.231Z,5.97
2022-07-30T01:01:52.205Z,8.45
2022-07-30T01:04:20.155Z,4.30
2022-07-30T01:06:48.173Z,6.10
2022-07-30T01:09:16.183Z,6.60
2022-07-30T01:11:44.849Z,7.15
2022-07-30T01:14:13.568Z,5.35
2022-07-30T01:16:43.914Z,4.00
2022-07-30T01:19:40.241Z,10.10
2022-07-30T01:22:35.602Z,6.25
2022-07-30T01:25:15.168Z,5.78
2022-07-30T01:27:49.710Z,3.30
2022-07-30T01:30:24.292Z,7.35
2022-07-30T01:32:55.427Z,3.97
2022-07-30T01:35:26.624Z,4.85
2022-07-30T01:37:57.329Z,7.28
2022-07-30T01:40:28.843Z,6.47
2022-07-30T01:43:01.577Z,4.63
2022-07-30T01:45:35.702Z,4.28
2022-07-30T01:48:13.243Z,5.35
2022-07-30T01:50:46.700Z,4.60
2022-07-30T01:53:18.890Z,4.80
2022-07-30T01:55:48.456Z,3.45
2022-07-30T01:58:22.215Z,2.90
2022-07-30T02:00:52.393Z,5.20
2022-07-30T02:03:21.984Z,5.78
2022-07-30T02:05:56.996Z,3.38
2022-07-30T02:08:37.420Z,3.80
2022-07-30T02:11:09.510Z,2.83
2022-07-30T02:13:48.766Z,5.72
2022-07-30T02:16:23.694Z,9.55
2022-07-30T02:19:04.365Z,7.03
2022-07-30T02:21:41.341Z,8.77
2022-07-30T02:24:25.390Z,6.32
2022-07-30T02:27:00.940Z,3.88
2022-07-30T02:29:34.262Z,8.55
2022-07-30T02:32:06.722Z,6.15
2022-07-30T02:34:39.939Z,4.05
2022-07-30T02:37:11.427Z,3.17
2022-07-30T02:39:42.845Z,5.00
2022-07-30T02:42:13.902Z,4.00
2022-07-30T02:44:45.822Z,6.77
2022-07-30T02:47:16.490Z,5.55
2022-07-30T02:49:48.256Z,5.18
2022-07-30T02:52:19.602Z,3.88
2022-07-30T02:54:51.500Z,10.20
2022-07-30T02:57:22.459Z,5.82
2022-07-30T02:59:55.264Z,4.10
2022-07-30T03:02:25.886Z,5.33
2022-07-30T03:05:00.897Z,7.50
2022-07-30T03:07:30.702Z,3.65
2022-07-30T03:10:02.031Z,3.67
2022-07-30T03:12:32.839Z,5.13
2022-07-30T03:15:02.367Z,4.55
2022-07-30T03:17:38.537Z,4.53
2022-07-30T03:20:12.134Z,7.38
2022-07-30T03:22:47.090Z,4.10
2022-07-30T03:25:20.120Z,7.85
2022-07-30T03:27:50.118Z,3.10
2022-07-30T03:30:19.939Z,3.92
2022-07-30T03:32:48.997Z,4.85
2022-07-30T03:35:18.221Z,7.47
2022-07-30T03:37:50.531Z,3.47
2022-07-30T03:40:19.582Z,3.97
2022-07-30T03:42:48.267Z,5.35
2022-07-30T03:45:18.160Z,6.15
2022-07-30T03:47:49.057Z,5.00
2022-07-30T03:50:17.435Z,2.40
2022-07-30T03:52:46.362Z,5.15
2022-07-30T03:55:15.043Z,5.82
2022-07-30T03:57:43.211Z,3.47
2022-07-30T04:00:17.223Z,4.68
2022-07-30T04:02:47.743Z,6.88
2022-07-30T04:05:17.434Z,4.88
2022-07-30T04:07:45.661Z,4.57
2022-07-30T04:10:16.439Z,5.30
2022-07-30T04:12:44.535Z,6.43
2022-07-30T04:16:16.700Z,3.90
2022-07-30T04:18:05.492Z,2.78
2022-07-30T04:20:42.787Z,4.28
2022-07-30T04:23:12.293Z,4.35
2022-07-30T04:25:41.768Z,4.30
2022-07-30T04:28:12.811Z,3.72
2022-07-30T04:30:42.500Z,5.47
2022-07-30T04:33:11.951Z,6.50
2022-07-30T04:35:51.538Z,6.53
2022-07-30T04:38:21.497Z,3.83
2022-07-30T04:40:50.284Z,3.67
2022-07-30T04:43:18.492Z,3.60
2022-07-30T04:45:46.798Z,4.13
2022-07-30T04:48:16.171Z,5.25
2022-07-30T04:50:50.018Z,4.63
2022-07-30T04:53:19.703Z,5.97
2022-07-30T04:55:50.437Z,3.30
2022-07-30T04:58:22.093Z,4.40
2022-07-30T05:00:52.259Z,3.95
2022-07-30T05:03:24.576Z,9.27
2022-07-30T05:05:57.477Z,5.63
2022-07-30T05:08:26.691Z,5.22
2022-07-30T05:10:55.344Z,4.63
2022-07-30T05:13:23.507Z,1.98
2022-07-30T05:16:02.961Z,4.00
2022-07-30T05:18:32.452Z,4.90
2022-07-30T05:21:00.314Z,4.07
2022-07-30T05:23:28.328Z,3.85
2022-07-30T05:25:56.472Z,3.30
2022-07-30T05:28:26.651Z,3.50
2022-07-30T05:30:55.782Z,5.32
2022-07-30T05:33:38.787Z,4.65
2022-07-30T05:36:11.704Z,3.70
2022-07-30T05:38:39.773Z,5.07
2022-07-30T05:41:31.720Z,4.90
2022-07-30T05:43:56.254Z,4.68
2022-07-30T05:46:25.135Z,3.95
2022-07-30T05:48:53.551Z,5.55
2022-07-30T05:51:23.052Z,6.60
2022-07-30T05:53:51.827Z,6.90
2022-07-30T05:56:19.953Z,4.47
2022-07-30T05:58:47.912Z,5.65
2022-07-30T06:01:15.862Z,6.53
2022-07-30T06:03:43.796Z,7.03
2022-07-30T06:06:11.755Z,7.28
2022-07-30T06:08:40.987Z,7.95
2022-07-30T06:11:09.848Z,3.15
2022-07-30T06:13:38.401Z,3.47
2022-07-30T06:16:06.796Z,4.25
2022-07-30T06:18:34.786Z,3.67
2022-07-30T06:21:02.790Z,4.20
2022-07-30T06:23:30.681Z,3.33
2022-07-30T06:26:00.013Z,2.95
2022-07-30T06:28:37.693Z,6.15
2022-07-30T06:31:06.674Z,3.30
2022-07-30T06:33:35.308Z,3.42
2022-07-30T06:36:03.366Z,4.97
2022-07-30T06:38:31.736Z,4.15
2022-07-30T06:41:02.811Z,3.55
2022-07-30T06:43:32.459Z,6.20
2022-07-30T06:46:00.784Z,2.55
2022-07-30T06:48:30.945Z,3.15
2022-07-30T06:50:58.913Z,10.30
2022-07-30T06:53:26.988Z,4.50
2022-07-30T06:56:00.249Z,3.05
2022-07-30T06:58:30.259Z,3.65
2022-07-30T07:00:58.301Z,6.10
2022-07-30T07:03:39.675Z,4.53
2022-07-30T07:06:09.121Z,4.88
2022-07-30T07:08:38.291Z,4.80
2022-07-30T07:11:06.186Z,2.65
2022-07-30T07:13:35.496Z,6.55
2022-07-30T07:16:04.178Z,5.03
2022-07-30T07:18:32.520Z,7.47
2022-07-30T07:21:00.621Z,6.05
2022-07-30T07:23:41.823Z,4.68
2022-07-30T07:26:11.649Z,3.72
2022-07-30T07:28:41.346Z,3.92
2022-07-30T07:31:10.202Z,6.57
2022-07-30T07:33:39.479Z,5.18
2022-07-30T07:36:08.013Z,3.92
2022-07-30T07:38:36.800Z,5.00
2022-07-30T07:41:05.404Z,5.75
2022-07-30T07:43:33.775Z,8.32
2022-07-30T07:46:03.082Z,3.13
2022-07-30T07:48:31.387Z,6.25
2022-07-30T07:51:00.484Z,4.15
2022-07-30T07:53:29.062Z,3.30
2022-07-30T07:55:57.447Z,2.60
2022-07-30T07:58:26.611Z,5.22
2022-07-30T08:00:55.545Z,5.18
2022-07-30T08:03:24.944Z,2.60
2022-07-30T08:05:58.153Z,7.50
2022-07-30T08:08:36.628Z,3.63
2022-07-30T08:11:06.553Z,5.47
2022-07-30T08:13:49.061Z,6.10
2022-07-30T08:16:20.462Z,4.20
2022-07-30T08:18:50.084Z,5.00
2022-07-30T08:21:18.169Z,5.63
2022-07-30T08:23:46.279Z,5.13
2022-07-30T08:26:14.292Z,2.95
2022-07-30T08:28:43.103Z,3.80
2022-07-30T08:31:11.225Z,3.58
2022-07-30T08:33:39.019Z,4.60
2022-07-30T08:36:09.857Z,3.05
2022-07-30T08:38:39.248Z,5.50
2022-07-30T08:41:07.639Z,6.95
2022-07-30T08:43:37.628Z,2.65
2022-07-30T08:46:11.023Z,4.97
2022-07-30T08:48:39.481Z,6.90
2022-07-30T08:51:09.910Z,2.83
2022-07-30T08:53:38.022Z,6.88
2022-07-30T08:56:08.582Z,3.63
2022-07-30T08:58:36.563Z,6.90
2022-07-30T09:01:06.849Z,4.32
2022-07-30T09:03:36.512Z,5.35
2022-07-30T09:06:13.637Z,3.70
2022-07-30T09:08:41.775Z,3.65
2022-07-30T09:11:09.851Z,4.28
2022-07-30T09:13:41.690Z,1.90
2022-07-30T09:16:21.809Z,2.83
2022-07-30T09:18:50.885Z,3.25
2022-07-30T09:21:24.154Z,5.32
2022-07-30T09:24:00.513Z,4.88
2022-07-30T09:26:29.649Z,5.97
2022-07-30T09:29:16.499Z,8.40
2022-07-30T09:31:55.820Z,7.82
2022-07-30T09:34:32.849Z,3.58
2022-07-30T09:37:05.243Z,7.40
2022-07-30T09:39:35.554Z,3.53
2022-07-30T09:42:05.772Z,3.05
2022-07-30T09:44:34.066Z,3.53
2022-07-30T09:47:02.887Z,2.33
2022-07-30T09:49:31.604Z,3.78
2022-07-30T09:52:01.113Z,3.38
2022-07-30T09:54:51.580Z,3.60
2022-07-30T09:57:26.010Z,2.45
2022-07-30T09:59:57.549Z,3.42
2022-07-30T10:02:35.389Z,3.70
2022-07-30T10:05:19.133Z,5.45
2022-07-30T10:07:56.329Z,2.97
2022-07-30T10:10:27.638Z,5.30
2022-07-30T10:13:01.104Z,5.25
2022-07-30T10:15:35.672Z,4.32
2022-07-30T10:18:06.692Z,3.60
2022-07-30T10:20:37.648Z,3.38
2022-07-30T10:23:10.876Z,5.47
2022-07-30T10:25:49.071Z,5.40
2022-07-30T10:28:22.943Z,4.22
2022-07-30T10:30:53.350Z,4.05
2022-07-30T10:33:36.334Z,3.80
2022-07-30T10:36:12.079Z,3.58
2022-07-30T10:38:44.764Z,4.15
2022-07-30T10:41:42.829Z,4.07
2022-07-30T10:44:51.814Z,5.15
2022-07-30T10:47:23.704Z,3.08
2022-07-30T10:50:11.577Z,2.67
2022-07-30T10:52:52.050Z,2.53
2022-07-30T10:55:32.865Z,2.40
2022-07-30T10:58:09.870Z,2.80
2022-07-30T11:01:01.569Z,6.72
2022-07-30T11:03:41.558Z,4.03
2022-07-30T11:06:29.647Z,2.50
2022-07-30T11:08:58.162Z,1.95
2022-07-30T11:12:01.161Z,3.90
2022-07-30T11:14:58.373Z,7.07
2022-07-30T11:18:01.002Z,3.60
2022-07-30T11:20:29.685Z,5.43
2022-07-30T11:23:26.255Z,2.17
2022-07-30T11:25:55.024Z,3.88
2022-07-30T11:28:40.375Z,4.20
2022-07-30T11:31:37.218Z,2.10
2022-07-30T11:34:30.739Z,2.63
2022-07-30T11:37:18.534Z,5.13
2022-07-30T11:40:11.378Z,3.63
2022-07-30T11:42:43.518Z,3.28
2022-07-30T11:45:27.031Z,3.67
2022-07-30T11:48:00.207Z,2.63
2022-07-30T11:50:32.281Z,2.03
2022-07-30T11:53:03.209Z,1.92
2022-07-30T11:55:33.599Z,2.35
2022-07-30T11:58:04.345Z,5.22
2022-07-30T12:00:40.643Z,3.00
2022-07-30T12:03:11.749Z,4.50
2022-07-30T12:05:40.473Z,3.03
2022-07-30T12:08:08.709Z,3.70
2022-07-30T12:10:59.700Z,3.22
2022-07-30T12:13:44.527Z,2.38
2022-07-30T12:16:18.009Z,2.53
2022-07-30T12:18:47.313Z,2.53
2022-07-30T12:21:16.784Z,2.47
2022-07-30T12:23:55.034Z,1.88
2022-07-30T12:26:24.658Z,2.25
2022-07-30T12:28:56.151Z,3.83
2022-07-30T12:31:26.407Z,2.78
2022-07-30T12:33:56.309Z,3.38
2022-07-30T12:36:31.269Z,2.78
2022-07-30T12:39:00.460Z,3.10
2022-07-30T12:41:47.128Z,2.05
2022-07-30T12:44:38.304Z,1.52
2022-07-30T12:47:20.801Z,2.70
2022-07-30T12:49:50.317Z,4.40
2022-07-30T12:52:28.272Z,2.65
2022-07-30T12:55:08.721Z,3.22
2022-07-30T12:57:54.830Z,5.22
2022-07-30T13:00:24.075Z,3.47
2022-07-30T13:02:53.552Z,4.32
2022-07-30T13:05:22.021Z,3.10
2022-07-30T13:07:59.134Z,6.13
2022-07-30T13:10:31.133Z,3.72
2022-07-30T13:12:59.762Z,3.70
2022-07-30T13:15:27.946Z,3.78
2022-07-30T13:17:57.181Z,2.70
2022-07-30T13:20:25.058Z,3.90
2022-07-30T13:22:52.883Z,5.47
2022-07-30T13:25:20.773Z,5.63
2022-07-30T13:27:49.051Z,2.78
2022-07-30T13:30:16.902Z,3.33
2022-07-30T13:32:44.744Z,3.30
2022-07-30T13:35:13.918Z,2.95
2022-07-30T13:37:41.790Z,2.25
2022-07-30T13:40:11.453Z,5.53
2022-07-30T13:42:39.316Z,1.58
2022-07-30T13:45:09.654Z,5.18
2022-07-30T13:47:37.634Z,4.82
2022-07-30T13:50:06.792Z,3.45
2022-07-30T13:52:36.067Z,3.58
2022-07-30T13:55:03.944Z,4.43
2022-07-30T13:57:31.784Z,3.40
2022-07-30T13:59:59.571Z,3.25
2022-07-30T14:02:27.901Z,2.08
2022-07-30T14:04:55.992Z,4.82
2022-07-30T14:07:24.002Z,4.88
2022-07-30T14:09:54.632Z,2.97
2022-07-30T14:12:22.672Z,2.92
2022-07-30T14:14:50.514Z,3.33
2022-07-30T14:17:18.490Z,3.08
2022-07-30T14:19:47.146Z,2.03
2022-07-30T14:22:15.059Z,2.55
2022-07-30T14:24:42.970Z,2.60
2022-07-30T14:27:12.128Z,4.20
2022-07-30T14:29:40.083Z,3.47
2022-07-30T14:32:08.021Z,4.65
2022-07-30T14:34:35.941Z,2.35
2022-07-30T14:37:04.290Z,3.50
2022-07-30T14:39:32.548Z,5.38
2022-07-30T14:42:00.398Z,2.50
2022-07-30T14:44:29.603Z,5.22
2022-07-30T14:46:57.469Z,2.40
2022-07-30T14:49:25.449Z,4.22
2022-07-30T14:51:53.775Z,5.88
2022-07-30T14:54:22.345Z,3.35
2022-07-30T14:56:54.887Z,3.03
2022-07-30T14:59:26.546Z,3.78
2022-07-30T15:01:56.096Z,3.03
2022-07-30T15:04:24.242Z,2.25
2022-07-30T15:06:52.120Z,1.42
2022-07-30T15:09:20.709Z,2.58
2022-07-30T15:12:07.972Z,3.78
2022-07-30T15:14:39.987Z,2.75
2022-07-30T15:17:09.732Z,4.60
2022-07-30T15:19:37.565Z,3.78
2022-07-30T15:22:18.258Z,3.47
2022-07-30T15:24:46.079Z,4.18
2022-07-30T15:27:14.087Z,2.95
2022-07-30T15:29:41.949Z,3.33
2022-07-30T15:32:11.241Z,4.28
2022-07-30T15:34:39.219Z,2.38
2022-07-30T15:37:07.146Z,6.88
2022-07-30T15:39:35.853Z,1.75
2022-07-30T15:42:06.146Z,7.10
2022-07-30T15:44:35.197Z,1.77
2022-07-30T15:47:03.025Z,1.88
2022-07-30T15:49:32.311Z,3.55
2022-07-30T15:52:01.797Z,3.67
2022-07-30T15:54:29.868Z,2.95
2022-07-30T15:57:01.089Z,1.65
2022-07-30T15:59:29.989Z,4.43
2022-07-30T16:01:58.945Z,2.00
2022-07-30T16:04:31.325Z,2.88
2022-07-30T16:07:01.649Z,3.00
2022-07-30T16:09:29.797Z,3.55
2022-07-30T16:11:58.278Z,4.90
2022-07-30T16:14:27.049Z,5.00
2022-07-30T16:16:54.989Z,1.48
2022-07-30T16:19:23.013Z,2.60
2022-07-30T16:21:50.997Z,4.40
2022-07-30T16:24:20.398Z,1.55
2022-07-30T16:26:48.327Z,6.20
2022-07-30T16:29:16.199Z,2.25
2022-07-30T16:31:44.196Z,2.08
2022-07-30T16:34:12.224Z,1.60
2022-07-30T16:36:40.119Z,1.88
2022-07-30T16:39:08.233Z,1.98
2022-07-30T16:41:38.356Z,4.63
2022-07-30T16:44:06.537Z,3.30
2022-07-30T16:46:34.425Z,4.40
2022-07-30T16:49:02.388Z,3.58
2022-07-30T16:51:30.682Z,3.60
2022-07-30T16:53:58.541Z,4.30
2022-07-30T16:56:26.508Z,2.15
2022-07-30T16:58:55.717Z,3.35
2022-07-30T17:01:23.720Z,3.08
2022-07-30T17:03:51.624Z,3.67
2022-07-30T17:06:19.654Z,1.45
2022-07-30T17:08:47.634Z,4.82
2022-07-30T17:11:47.426Z,1.95
2022-07-30T17:14:06.400Z,4.00
2022-07-30T17:16:34.305Z,3.13
2022-07-30T17:19:09.247Z,18.83
2022-07-30T17:21:38.949Z,1.50
2022-07-30T17:24:11.305Z,2.10
2022-07-30T17:26:42.807Z,3.33
2022-07-30T17:29:14.667Z,3.85
2022-07-30T17:31:44.509Z,2.83
2022-07-30T17:34:14.545Z,3.05
2022-07-30T17:36:52.662Z,1.30
2022-07-30T17:40:26.985Z,3.22
2022-07-30T17:42:10.717Z,2.55
2022-07-30T17:44:42.034Z,3.13
2022-07-30T17:47:15.169Z,2.70
2022-07-30T17:49:44.886Z,3.22
2022-07-30T17:52:13.059Z,6.03
2022-07-30T17:54:41.273Z,4.25
2022-07-30T17:57:10.345Z,6.82
2022-07-30T17:59:38.365Z,1.75
2022-07-30T18:02:08.184Z,6.07
2022-07-30T18:04:36.593Z,1.92
2022-07-30T18:07:05.263Z,2.30
2022-07-30T18:09:39.269Z,4.40
2022-07-30T18:12:09.490Z,3.95
2022-07-30T18:14:38.685Z,3.45
2022-07-30T18:17:12.439Z,2.10
2022-07-30T18:19:42.246Z,2.08
2022-07-30T18:22:10.431Z,4.10
2022-07-30T18:24:43.961Z,3.03
2022-07-30T18:27:13.006Z,2.08
2022-07-30T18:29:41.209Z,5.05
2022-07-30T18:32:11.959Z,3.90
2022-07-30T18:34:42.925Z,5.10
2022-07-30T18:37:10.997Z,1.70
2022-07-30T18:39:38.899Z,5.57
2022-07-30T18:42:07.912Z,3.85
2022-07-30T18:44:36.370Z,5.65
2022-07-30T18:47:04.453Z,3.60
2022-07-30T18:49:37.055Z,3.83
2022-07-30T18:52:08.011Z,2.45
2022-07-30T18:54:38.687Z,4.95
2022-07-30T18:57:11.261Z,3.17
2022-07-30T18:59:40.640Z,6.18
2022-07-30T19:02:08.460Z,2.55
2022-07-30T19:04:37.874Z,4.38
2022-07-30T19:07:07.173Z,2.72
2022-07-30T19:09:35.568Z,3.85
2022-07-30T19:12:03.981Z,2.65
2022-07-30T19:14:32.203Z,3.22
2022-07-30T19:17:00.187Z,4.75
2022-07-30T19:19:28.915Z,2.38
2022-07-30T19:21:59.101Z,6.13
2022-07-30T19:24:28.892Z,7.20
2022-07-30T19:26:57.999Z,6.30
2022-07-30T19:29:26.083Z,7.47
2022-07-30T19:31:55.068Z,5.65
2022-07-30T19:34:23.263Z,6.95
2022-07-30T19:36:51.820Z,4.65
2022-07-30T19:39:22.105Z,6.68
2022-07-30T19:41:50.953Z,4.75
2022-07-30T19:44:19.428Z,33.67
2022-07-30T19:46:48.659Z,5.85
2022-07-30T19:49:19.837Z,5.78
2022-07-30T19:52:10.584Z,6.97
2022-07-30T19:54:41.505Z,5.78
2022-07-30T19:57:09.522Z,5.25
2022-07-30T19:59:46.152Z,6.13
2022-07-30T20:02:27.156Z,7.43
2022-07-30T20:04:55.889Z,9.73
2022-07-30T20:07:27.569Z,6.50
2022-07-30T20:09:57.119Z,7.05
2022-07-30T20:12:25.209Z,5.78
2022-07-30T20:14:54.601Z,6.30
2022-07-30T20:17:23.776Z,4.70
2022-07-30T20:19:57.962Z,8.50
2022-07-30T20:22:28.939Z,13.20
2022-07-30T20:25:07.986Z,3.80
2022-07-30T20:30:26.012Z,5.65
2022-07-30T20:32:54.203Z,16.05
2022-07-30T20:35:26.213Z,5.35
2022-07-30T20:37:56.310Z,9.05
2022-07-30T20:40:27.138Z,14.10
2022-07-30T20:43:00.028Z,18.02
2022-07-30T20:45:40.267Z,13.63
2022-07-30T20:48:17.469Z,17.13
2022-07-30T20:50:53.622Z,10.40
2022-07-30T20:53:23.425Z,25.17
2022-07-30T20:55:53.043Z,29.58
2022-07-30T20:58:22.132Z,31.05
2022-07-30T21:00:51.727Z,22.38
2022-07-30T21:03:21.270Z,19.80
2022-07-30T21:05:51.160Z,20.65
2022-07-30T21:08:21.373Z,18.00
2022-07-30T21:10:55.395Z,28.98
2022-07-30T21:13:26.554Z,26.63
2022-07-30T21:16:03.043Z,17.75
2022-07-30T21:18:32.744Z,7.30
2022-07-30T21:21:04.923Z,4.63
2022-07-30T21:23:34.344Z,8.27
2022-07-30T21:26:10.552Z,6.55
2022-07-30T21:28:43.915Z,10.45
2022-07-30T21:31:11.964Z,6.78
2022-07-30T21:33:42.480Z,4.35
2022-07-30T21:36:11.142Z,8.98
2022-07-30T21:38:41.861Z,22.60
2022-07-30T21:41:14.507Z,24.33
2022-07-30T21:43:44.575Z,10.48
2022-07-30T21:46:13.086Z,7.43
2022-07-30T21:48:43.389Z,5.53
2022-07-30T21:51:13.033Z,10.20
2022-07-30T21:53:44.914Z,4.57
2022-07-30T21:56:16.784Z,12.30
2022-07-30T21:58:45.569Z,6.85
2022-07-30T22:01:21.720Z,7.38
2022-07-30T22:04:03.414Z,5.28
2022-07-30T22:06:41.235Z,5.38
2022-07-30T22:09:19.565Z,7.82
2022-07-30T22:12:02.272Z,4.05
2022-07-30T22:14:37.591Z,4.22
2022-07-30T22:17:05.956Z,8.80
2022-07-30T22:19:51.471Z,30.40
2022-07-30T22:22:26.353Z,24.17
2022-07-30T22:24:57.313Z,6.28
2022-07-30T22:27:39.534Z,5.35
2022-07-30T22:30:13.868Z,5.22
2022-07-30T22:32:42.874Z,4.88
2022-07-30T22:35:11.988Z,5.45
2022-07-30T22:37:44.635Z,14.23
2022-07-30T22:40:14.149Z,14.60
2022-07-30T22:42:46.669Z,11.52
2022-07-30T22:45:46.569Z,11.57
2022-07-30T22:48:10.046Z,13.20
2022-07-30T22:50:39.745Z,8.18
2022-07-30T22:54:03.026Z,30.55
2022-07-30T22:55:56.092Z,24.52
2022-07-30T22:58:26.376Z,8.55
2022-07-30T23:00:55.410Z,6.53
2022-07-30T23:03:23.451Z,8.85
2022-07-30T23:05:56.798Z,27.40
2022-07-30T23:08:30.263Z,10.65
2022-07-30T23:11:00.170Z,10.35
2022-07-30T23:12:18.909Z,4.35
2022-07-30T23:13:29.966Z,7.93
2022-07-30T23:15:57.998Z,5.88
2022-07-30T23:18:26.157Z,4.85
2022-07-30T23:20:58.508Z,12.63
2022-07-30T23:23:30.883Z,8.60
2022-07-30T23:26:02.276Z,6.07
2022-07-30T23:28:31.672Z,7.72
2022-07-30T23:31:00.199Z,6.72
2022-07-30T23:33:28.387Z,5.57
2022-07-30T23:35:56.667Z,9.68
2022-07-30T23:38:25.289Z,13.48
2022-07-30T23:40:53.306Z,16.13
2022-07-30T23:43:21.309Z,18.60
2022-07-30T23:45:50.590Z,45.90
2022-07-30T23:48:18.570Z,17.50
2022-07-30T23:50:46.560Z,23.98
2022-07-30T23:53:14.874Z,11.98
2022-07-30T23:55:42.953Z,29.55
2022-07-30T23:58:10.999Z,14.50
